createdAt,value
2023-02-16T00:01:59.017Z,168.90
2023-02-16T00:04:31.189Z,160.25
2023-02-16T00:06:59.012Z,164.88
2023-02-16T00:09:26.362Z,191.75
2023-02-16T00:12:12.671Z,188.95
2023-02-16T00:14:40.682Z,174.43
2023-02-16T00:17:11.454Z,169.45
2023-02-16T00:19:42.273Z,195.93
2023-02-16T00:22:11.404Z,176.15
2023-02-16T00:24:38.601Z,167.17
2023-02-16T00:27:14.316Z,161.65
2023-02-16T00:29:44.677Z,152.55
2023-02-16T00:32:14.010Z,147.85
2023-02-16T00:34:42.097Z,183.52
2023-02-16T00:37:13.674Z,168.75
2023-02-16T00:39:43.457Z,177.48
2023-02-16T00:42:22.561Z,182.93
2023-02-16T00:44:56.157Z,180.60
2023-02-16T00:47:37.636Z,135.30
2023-02-16T00:50:22.944Z,147.07
2023-02-16T00:52:50.988Z,170.13
2023-02-16T00:55:20.430Z,150.60
2023-02-16T00:58:01.503Z,180.70
2023-02-16T01:00:46.944Z,177.02
2023-02-16T01:03:27.177Z,161.18
2023-02-16T01:09:01.885Z,169.55
2023-02-16T01:11:31.918Z,165.25
2023-02-16T01:13:59.391Z,181.40
2023-02-16T01:16:39.567Z,168.60
2023-02-16T01:19:06.906Z,162.25
2023-02-16T01:21:34.332Z,154.65
2023-02-16T01:24:02.126Z,184.20
2023-02-16T01:26:30.641Z,167.90
2023-02-16T01:28:57.957Z,189.77
2023-02-16T01:31:25.308Z,159.57
2023-02-16T01:33:52.892Z,178.68
2023-02-16T01:36:36.776Z,155.20
2023-02-16T01:39:08.458Z,159.27
2023-02-16T01:41:54.938Z,154.73
2023-02-16T01:44:27.459Z,178.68
2023-02-16T01:47:07.665Z,164.30
2023-02-16T01:49:38.341Z,162.20
2023-02-16T01:52:11.879Z,154.48
2023-02-16T01:54:51.411Z,153.88
2023-02-16T01:57:43.710Z,124.50
2023-02-16T02:00:18.375Z,138.52
2023-02-16T02:02:55.177Z,140.93
2023-02-16T02:05:36.188Z,147.55
2023-02-16T02:08:11.272Z,156.73
2023-02-16T02:10:48.460Z,156.32
2023-02-16T02:13:22.868Z,154.77
2023-02-16T02:15:50.432Z,147.25
2023-02-16T02:18:17.878Z,160.23
2023-02-16T02:21:34.718Z,150.07
2023-02-16T02:24:20.550Z,146.07
2023-02-16T02:27:20.355Z,144.65
2023-02-16T02:30:23.594Z,138.57
2023-02-16T02:33:39.424Z,149.75
2023-02-16T02:36:28.611Z,137.57
2023-02-16T02:39:11.138Z,149.70
2023-02-16T02:42:13.171Z,132.63
2023-02-16T02:45:12.812Z,149.82
2023-02-16T02:47:47.398Z,151.27
2023-02-16T02:50:38.461Z,131.70
2023-02-16T02:53:15.745Z,141.52
2023-02-16T02:56:07.988Z,152.98
2023-02-16T02:58:57.330Z,145.60
2023-02-16T03:01:25.922Z,146.10
2023-02-16T03:03:57.243Z,149.13
2023-02-16T03:06:28.798Z,142.25
2023-02-16T03:09:16.303Z,135.27
2023-02-16T03:12:04.409Z,149.85
2023-02-16T03:14:47.320Z,147.93
2023-02-16T03:17:36.774Z,130.88
2023-02-16T03:20:27.844Z,134.55
2023-02-16T03:23:15.046Z,129.02
2023-02-16T03:26:01.326Z,148.98
2023-02-16T03:28:50.546Z,137.32
2023-02-16T03:31:24.500Z,149.02
2023-02-16T03:33:55.103Z,126.88
2023-02-16T03:36:28.244Z,139.57
2023-02-16T03:38:56.905Z,135.23
2023-02-16T03:41:26.118Z,131.98
2023-02-16T03:43:53.543Z,129.45
2023-02-16T03:46:20.932Z,138.65
2023-02-16T03:48:48.253Z,121.95
2023-02-16T03:51:15.505Z,124.05
2023-02-16T03:53:42.673Z,129.43
2023-02-16T03:56:10.047Z,129.25
2023-02-16T03:58:37.482Z,130.68
2023-02-16T04:01:05.211Z,121.43
2023-02-16T04:03:33.559Z,136.85
2023-02-16T04:06:01.211Z,137.63
2023-02-16T04:08:28.827Z,138.13
2023-02-16T04:10:57.699Z,137.65
2023-02-16T04:13:25.333Z,131.75
2023-02-16T04:15:52.763Z,129.13
2023-02-16T04:18:20.053Z,137.82
2023-02-16T04:20:47.373Z,125.57
2023-02-16T04:23:14.614Z,118.30
2023-02-16T04:25:41.921Z,114.55
2023-02-16T04:28:09.330Z,119.70
2023-02-16T04:30:36.738Z,122.32
2023-02-16T04:33:04.063Z,124.10
2023-02-16T04:35:31.302Z,128.95
2023-02-16T04:37:58.577Z,117.55
2023-02-16T04:40:25.830Z,116.70
2023-02-16T04:42:53.092Z,119.18
2023-02-16T04:45:20.376Z,107.70
2023-02-16T04:47:47.686Z,123.93
2023-02-16T04:50:15.117Z,113.50
2023-02-16T04:52:42.592Z,123.45
2023-02-16T04:55:11.241Z,121.85
2023-02-16T04:57:39.806Z,120.18
2023-02-16T05:00:10.348Z,119.50
2023-02-16T05:02:37.753Z,119.20
2023-02-16T05:05:05.293Z,127.25
2023-02-16T05:07:32.629Z,120.07
2023-02-16T05:10:00.033Z,113.03
2023-02-16T05:12:45.918Z,123.53
2023-02-16T05:15:13.249Z,120.28
2023-02-16T05:17:40.632Z,119.45
2023-02-16T05:20:08.806Z,110.88
2023-02-16T05:22:39.346Z,112.88
2023-02-16T05:25:07.996Z,115.05
2023-02-16T05:27:35.714Z,124.03
2023-02-16T05:30:03.204Z,117.82
2023-02-16T05:32:30.528Z,105.65
2023-02-16T05:34:57.896Z,114.53
2023-02-16T05:37:25.248Z,113.45
2023-02-16T05:39:53.181Z,112.85
2023-02-16T05:42:20.470Z,122.65
2023-02-16T05:44:48.541Z,109.28
2023-02-16T05:47:15.853Z,110.40
2023-02-16T05:49:43.807Z,120.78
2023-02-16T05:52:11.178Z,118.13
2023-02-16T05:54:38.538Z,111.50
2023-02-16T05:57:05.782Z,111.18
2023-02-16T05:59:33.064Z,115.63
2023-02-16T06:02:00.499Z,112.47
2023-02-16T06:04:28.823Z,101.97
2023-02-16T06:06:56.120Z,105.80
2023-02-16T06:09:23.437Z,104.38
2023-02-16T06:11:50.746Z,105.38
2023-02-16T06:14:20.161Z,110.88
2023-02-16T06:16:49.959Z,114.68
2023-02-16T06:19:18.568Z,112.30
2023-02-16T06:21:46.860Z,95.35
2023-02-16T06:24:15.750Z,100.85
2023-02-16T06:26:43.396Z,107.32
2023-02-16T06:29:11.912Z,97.50
2023-02-16T06:31:39.943Z,106.05
2023-02-16T06:34:08.277Z,96.63
2023-02-16T06:36:36.345Z,105.10
2023-02-16T06:39:04.907Z,96.70
2023-02-16T06:41:35.928Z,105.00
2023-02-16T06:44:07.133Z,100.38
2023-02-16T06:46:35.953Z,100.80
2023-02-16T06:49:03.979Z,109.55
2023-02-16T06:51:32.689Z,101.72
2023-02-16T06:54:00.694Z,95.40
2023-02-16T06:56:28.534Z,97.20
2023-02-16T06:58:56.626Z,99.22
2023-02-16T07:01:26.367Z,99.55
2023-02-16T07:03:55.792Z,96.90
2023-02-16T07:06:27.114Z,97.15
2023-02-16T07:08:55.246Z,98.50
2023-02-16T07:11:23.652Z,98.53
2023-02-16T07:13:51.910Z,98.22
2023-02-16T07:16:20.044Z,90.20
2023-02-16T07:18:48.101Z,91.93
2023-02-16T07:21:17.030Z,97.13
2023-02-16T07:23:45.029Z,92.13
2023-02-16T07:26:13.670Z,90.60
2023-02-16T07:28:41.680Z,98.10
2023-02-16T07:31:15.389Z,96.47
2023-02-16T07:33:44.565Z,96.80
2023-02-16T07:36:13.842Z,92.45
2023-02-16T07:38:42.473Z,88.70
2023-02-16T07:41:11.199Z,88.32
2023-02-16T07:43:39.911Z,102.50
2023-02-16T07:46:07.903Z,89.05
2023-02-16T07:48:35.821Z,83.63
2023-02-16T07:51:04.409Z,87.95
2023-02-16T07:53:32.825Z,89.57
2023-02-16T07:56:00.909Z,86.10
2023-02-16T07:58:28.846Z,88.47
2023-02-16T08:01:18.168Z,86.10
2023-02-16T08:03:46.299Z,84.13
2023-02-16T08:06:14.988Z,88.88
2023-02-16T08:08:43.722Z,85.30
2023-02-16T08:11:14.780Z,89.82
2023-02-16T08:13:42.884Z,88.28
2023-02-16T08:16:18.548Z,91.85
2023-02-16T08:18:46.922Z,85.10
2023-02-16T08:21:20.973Z,84.63
2023-02-16T08:23:56.529Z,81.97
2023-02-16T08:26:26.896Z,79.60
2023-02-16T08:28:56.944Z,79.20
2023-02-16T08:31:28.910Z,83.93
2023-02-16T08:33:59.705Z,73.20
2023-02-16T08:36:33.492Z,72.57
2023-02-16T08:39:17.443Z,74.57
2023-02-16T08:41:47.767Z,76.05
2023-02-16T08:44:17.414Z,81.30
2023-02-16T08:46:47.213Z,74.22
2023-02-16T08:49:18.094Z,71.28
2023-02-16T08:51:48.652Z,73.90
2023-02-16T08:54:20.729Z,72.63
2023-02-16T08:56:50.190Z,74.28
2023-02-16T08:59:20.241Z,72.95
2023-02-16T09:01:48.191Z,73.03
2023-02-16T09:04:18.144Z,71.10
2023-02-16T09:09:15.068Z,74.70
2023-02-16T09:11:43.229Z,75.65
2023-02-16T09:14:11.481Z,71.35
2023-02-16T09:16:45.960Z,71.55
2023-02-16T09:19:17.365Z,71.47
2023-02-16T09:21:47.440Z,71.70
2023-02-16T09:24:16.556Z,67.80
2023-02-16T09:26:45.241Z,70.68
2023-02-16T09:29:14.570Z,68.53
2023-02-16T09:31:44.817Z,71.70
2023-02-16T09:34:22.395Z,73.70
2023-02-16T09:36:51.416Z,70.47
2023-02-16T09:39:19.770Z,71.28
2023-02-16T09:41:56.278Z,67.38
2023-02-16T09:44:38.538Z,68.40
2023-02-16T09:47:15.016Z,64.35
2023-02-16T09:49:46.805Z,63.78
2023-02-16T09:52:20.568Z,65.65
2023-02-16T09:54:58.190Z,73.45
2023-02-16T09:57:57.590Z,67.68
2023-02-16T10:00:34.189Z,66.23
2023-02-16T10:03:14.294Z,65.25
2023-02-16T10:06:02.137Z,70.90
2023-02-16T10:08:32.891Z,65.05
2023-02-16T10:11:30.732Z,63.67
2023-02-16T10:14:21.991Z,66.75
2023-02-16T10:17:04.880Z,66.35
2023-02-16T10:19:44.840Z,67.60
2023-02-16T10:22:18.224Z,65.43
2023-02-16T10:25:01.609Z,66.40
2023-02-16T10:27:38.389Z,63.60
2023-02-16T10:30:18.914Z,62.85
2023-02-16T10:33:06.932Z,68.43
2023-02-16T10:35:58.033Z,65.07
2023-02-16T10:38:32.944Z,66.07
2023-02-16T10:41:31.944Z,68.20
2023-02-16T10:44:21.045Z,63.03
2023-02-16T10:46:56.276Z,66.10
2023-02-16T10:49:27.315Z,66.80
2023-02-16T10:51:57.686Z,64.82
2023-02-16T10:54:34.126Z,65.97
2023-02-16T10:57:08.367Z,64.18
2023-02-16T10:59:39.261Z,68.50
2023-02-16T11:02:40.398Z,70.78
2023-02-16T11:05:26.957Z,65.63
2023-02-16T11:08:02.143Z,70.80
2023-02-16T11:10:52.827Z,66.93
2023-02-16T11:13:20.969Z,67.03
2023-02-16T11:15:55.086Z,61.50
2023-02-16T11:18:34.597Z,67.00
2023-02-16T11:21:03.813Z,70.40
2023-02-16T11:23:34.282Z,69.55
2023-02-16T11:28:40.051Z,66.22
2023-02-16T11:31:19.255Z,65.60
2023-02-16T11:34:06.151Z,67.93
2023-02-16T11:36:34.645Z,65.60
2023-02-16T11:39:14.885Z,61.78
2023-02-16T11:44:42.297Z,68.15
2023-02-16T11:47:25.093Z,67.47
2023-02-16T11:50:29.051Z,67.30
2023-02-16T11:53:23.207Z,69.05
2023-02-16T11:55:51.730Z,68.90
2023-02-16T11:58:25.713Z,63.08
2023-02-16T12:01:06.654Z,62.65
2023-02-16T12:04:10.955Z,59.33
2023-02-16T12:07:00.040Z,56.95
2023-02-16T12:09:54.182Z,55.80
2023-02-16T12:12:52.491Z,52.65
2023-02-16T12:15:36.907Z,52.92
2023-02-16T12:18:19.866Z,57.03
2023-02-16T12:20:53.662Z,56.47
2023-02-16T12:23:33.578Z,54.45
2023-02-16T12:26:32.102Z,58.92
2023-02-16T12:29:21.328Z,56.92
2023-02-16T12:32:14.741Z,56.38
2023-02-16T12:35:00.974Z,55.25
2023-02-16T12:37:44.297Z,57.45
2023-02-16T12:40:31.357Z,54.92
2023-02-16T12:43:06.488Z,61.35
2023-02-16T12:45:40.974Z,58.15
2023-02-16T12:48:11.517Z,61.22
2023-02-16T12:50:42.687Z,58.92
2023-02-16T12:53:28.078Z,56.33
2023-02-16T12:56:08.748Z,52.40
2023-02-16T12:58:44.287Z,54.95
2023-02-16T13:01:24.369Z,58.33
2023-02-16T13:04:19.150Z,60.75
2023-02-16T13:07:07.100Z,57.60
2023-02-16T13:09:51.597Z,56.78
2023-02-16T13:12:32.214Z,58.70
2023-02-16T13:15:06.295Z,59.35
2023-02-16T13:17:40.536Z,60.90
2023-02-16T13:20:20.656Z,58.15
2023-02-16T13:26:06.115Z,57.42
2023-02-16T13:28:40.468Z,54.88
2023-02-16T13:31:47.924Z,71.22
2023-02-16T13:34:24.896Z,65.28
2023-02-16T13:37:15.255Z,62.17
2023-02-16T13:40:11.159Z,59.10
2023-02-16T13:42:51.519Z,66.13
2023-02-16T13:47:49.987Z,61.55
2023-02-16T13:50:24.304Z,61.90
2023-02-16T13:52:54.034Z,62.88
2023-02-16T13:55:42.214Z,64.38
2023-02-16T13:58:16.752Z,64.05
2023-02-16T14:00:49.624Z,62.25
2023-02-16T14:03:18.026Z,63.63
2023-02-16T14:05:48.865Z,59.35
2023-02-16T14:08:21.354Z,68.68
2023-02-16T14:10:55.825Z,69.43
2023-02-16T14:13:41.945Z,63.50
2023-02-16T14:16:18.848Z,62.47
2023-02-16T14:18:56.478Z,67.00
2023-02-16T14:21:34.148Z,67.32
2023-02-16T14:24:03.847Z,65.55
2023-02-16T14:26:32.476Z,64.20
2023-02-16T14:29:19.825Z,65.57
2023-02-16T14:31:58.238Z,65.93
2023-02-16T14:34:36.401Z,66.10
2023-02-16T14:37:15.375Z,64.10
2023-02-16T14:40:07.039Z,65.63
2023-02-16T14:42:36.906Z,66.07
2023-02-16T14:45:20.033Z,72.07
2023-02-16T14:48:17.039Z,65.70
2023-02-16T14:51:15.566Z,65.13
2023-02-16T14:54:11.840Z,64.40
2023-02-16T14:56:43.429Z,58.80
2023-02-16T14:59:40.335Z,63.75
2023-02-16T15:02:31.611Z,64.75
2023-02-16T15:05:14.427Z,59.58
2023-02-16T15:07:43.533Z,59.35
2023-02-16T15:10:15.193Z,61.72
2023-02-16T15:12:44.623Z,62.13
2023-02-16T15:15:20.003Z,57.28
2023-02-16T15:17:49.314Z,58.30
2023-02-16T15:20:29.627Z,58.42
2023-02-16T15:23:00.093Z,58.97
2023-02-16T15:25:36.163Z,60.17
2023-02-16T15:28:19.208Z,62.53
2023-02-16T15:30:59.371Z,62.65
2023-02-16T15:33:33.969Z,57.40
2023-02-16T15:36:04.967Z,60.25
2023-02-16T15:38:35.908Z,62.55
2023-02-16T15:41:14.226Z,66.97
2023-02-16T15:43:50.264Z,59.80
2023-02-16T15:46:48.631Z,62.50
2023-02-16T15:49:30.670Z,60.90
2023-02-16T15:51:58.236Z,59.90
2023-02-16T15:54:31.033Z,60.42
2023-02-16T15:57:04.430Z,67.47
2023-02-16T15:59:45.576Z,58.17
2023-02-16T16:02:33.655Z,64.95
2023-02-16T16:05:03.806Z,65.63
2023-02-16T16:10:21.809Z,65.80
2023-02-16T16:12:51.466Z,66.28
2023-02-16T16:15:25.350Z,67.70
2023-02-16T16:17:55.061Z,67.10
2023-02-16T16:20:36.218Z,71.30
2023-02-16T16:23:15.656Z,67.18
2023-02-16T16:25:46.914Z,71.53
2023-02-16T16:28:36.822Z,74.47
2023-02-16T16:31:10.198Z,72.97
2023-02-16T16:33:53.891Z,75.72
2023-02-16T16:36:28.352Z,74.28
2023-02-16T16:39:19.220Z,66.57
2023-02-16T16:42:07.255Z,71.38
2023-02-16T16:44:40.504Z,78.15
2023-02-16T16:47:14.123Z,71.93
2023-02-16T16:49:51.952Z,73.97
2023-02-16T16:52:43.409Z,74.32
2023-02-16T16:55:25.148Z,76.22
2023-02-16T16:58:05.072Z,79.55
2023-02-16T17:00:38.621Z,77.38
2023-02-16T17:03:08.311Z,78.00
2023-02-16T17:05:38.557Z,80.45
2023-02-16T17:08:06.523Z,80.15
2023-02-16T17:10:35.332Z,83.50
2023-02-16T17:13:03.439Z,79.13
2023-02-16T17:15:46.004Z,85.57
2023-02-16T17:18:18.733Z,82.82
2023-02-16T17:20:46.894Z,80.35
2023-02-16T17:23:16.733Z,71.88
2023-02-16T17:25:44.619Z,85.57
2023-02-16T17:28:13.142Z,79.85
2023-02-16T17:30:41.108Z,79.70
2023-02-16T17:33:10.014Z,81.32
2023-02-16T17:35:40.659Z,78.30
2023-02-16T17:38:14.362Z,76.85
2023-02-16T17:40:44.151Z,80.25
2023-02-16T17:43:13.849Z,75.68
2023-02-16T17:45:41.992Z,75.72
2023-02-16T17:48:33.493Z,75.28
2023-02-16T17:51:00.806Z,76.68
2023-02-16T17:53:29.142Z,75.72
2023-02-16T17:55:58.291Z,71.65
2023-02-16T17:58:26.341Z,76.97
2023-02-16T18:00:54.275Z,74.30
2023-02-16T18:03:23.153Z,78.53
2023-02-16T18:05:51.202Z,77.68
2023-02-16T18:08:18.846Z,74.65
2023-02-16T18:11:02.313Z,76.00
2023-02-16T18:13:30.271Z,75.28
2023-02-16T18:15:59.739Z,77.60
2023-02-16T18:18:27.138Z,76.70
2023-02-16T18:20:54.502Z,74.88
2023-02-16T18:23:21.965Z,78.85
2023-02-16T18:25:49.501Z,77.18
2023-02-16T18:28:19.180Z,75.95
2023-02-16T18:30:50.872Z,74.35
2023-02-16T18:33:21.367Z,73.30
2023-02-16T18:35:51.287Z,78.05
2023-02-16T18:38:21.871Z,72.20
2023-02-16T18:40:50.540Z,73.85
2023-02-16T18:43:18.257Z,79.43
2023-02-16T18:45:45.763Z,76.28
2023-02-16T18:48:13.951Z,71.50
2023-02-16T18:50:41.585Z,75.05
2023-02-16T18:53:09.076Z,75.03
2023-02-16T18:55:36.617Z,74.63
2023-02-16T18:58:08.066Z,72.70
2023-02-16T19:00:37.113Z,72.82
2023-02-16T19:03:05.488Z,73.60
2023-02-16T19:05:33.502Z,72.18
2023-02-16T19:08:01.348Z,74.75
2023-02-16T19:10:28.883Z,75.75
2023-02-16T19:12:56.152Z,69.32
2023-02-16T19:15:23.691Z,76.85
2023-02-16T19:17:51.365Z,75.55
2023-02-16T19:20:18.923Z,70.75
2023-02-16T19:22:47.344Z,71.88
2023-02-16T19:25:15.721Z,69.20
2023-02-16T19:27:43.970Z,71.45
2023-02-16T19:30:12.101Z,74.50
2023-02-16T19:32:43.075Z,75.63
2023-02-16T19:35:11.541Z,67.60
2023-02-16T19:37:39.638Z,75.65
2023-02-16T19:40:09.581Z,71.25
2023-02-16T19:42:37.846Z,74.38
2023-02-16T19:45:05.815Z,75.50
2023-02-16T19:47:33.368Z,71.90
2023-02-16T19:50:00.916Z,72.55
2023-02-16T19:52:28.400Z,76.82
2023-02-16T19:54:55.722Z,78.38
2023-02-16T19:57:23.213Z,75.80
2023-02-16T19:59:50.513Z,72.63
2023-02-16T20:02:18.246Z,73.93
2023-02-16T20:04:45.453Z,78.15
2023-02-16T20:07:12.952Z,76.65
2023-02-16T20:09:40.634Z,76.28
2023-02-16T20:12:08.299Z,73.80
2023-02-16T20:14:36.908Z,79.90
2023-02-16T20:17:04.242Z,77.03
2023-02-16T20:19:31.769Z,72.43
2023-02-16T20:21:59.068Z,75.47
2023-02-16T20:24:26.508Z,79.13
2023-02-16T20:26:53.972Z,72.20
2023-02-16T20:29:21.368Z,77.28
2023-02-16T20:31:55.525Z,75.47
2023-02-16T20:34:24.730Z,75.15
2023-02-16T20:36:52.701Z,69.50
2023-02-16T20:39:20.593Z,68.97
2023-02-16T20:41:47.784Z,70.35
2023-02-16T20:44:15.426Z,70.93
2023-02-16T20:46:43.576Z,70.07
2023-02-16T20:49:11.048Z,71.32
2023-02-16T20:51:38.411Z,67.63
2023-02-16T20:54:06.161Z,67.15
2023-02-16T20:56:33.448Z,73.15
2023-02-16T20:59:01.721Z,75.25
2023-02-16T21:01:33.973Z,75.78
2023-02-16T21:04:01.684Z,71.72
2023-02-16T21:06:29.940Z,75.22
2023-02-16T21:08:57.922Z,65.65
2023-02-16T21:11:25.970Z,66.53
2023-02-16T21:13:53.603Z,73.63
2023-02-16T21:16:20.997Z,78.88
2023-02-16T21:18:48.418Z,78.30
2023-02-16T21:21:16.144Z,74.15
2023-02-16T21:23:45.742Z,76.75
2023-02-16T21:26:13.083Z,61.92
2023-02-16T21:28:40.814Z,68.28
2023-02-16T21:31:13.898Z,77.63
2023-02-16T21:33:41.516Z,74.05
2023-02-16T21:36:14.744Z,79.13
2023-02-16T21:38:42.914Z,77.75
2023-02-16T21:41:29.350Z,75.93
2023-02-16T21:44:02.771Z,77.30
2023-02-16T21:46:38.515Z,75.15
2023-02-16T21:49:10.015Z,72.22
2023-02-16T21:51:41.350Z,73.90
2023-02-16T21:54:12.699Z,74.65
2023-02-16T21:56:48.418Z,75.80
2023-02-16T21:59:18.175Z,74.72
2023-02-16T22:01:48.705Z,77.28
2023-02-16T22:04:18.954Z,75.97
2023-02-16T22:06:48.594Z,81.43
2023-02-16T22:09:19.293Z,83.97
2023-02-16T22:11:46.955Z,83.65
2023-02-16T22:14:14.440Z,90.85
2023-02-16T22:16:44.143Z,96.13
2023-02-16T22:19:14.761Z,77.00
2023-02-16T22:21:44.710Z,81.25
2023-02-16T22:24:16.326Z,70.38
2023-02-16T22:26:44.087Z,72.05
2023-02-16T22:29:12.554Z,72.95
2023-02-16T22:31:45.386Z,78.10
2023-02-16T22:34:18.626Z,74.10
2023-02-16T22:36:46.282Z,72.13
2023-02-16T22:39:15.310Z,70.55
2023-02-16T22:41:43.045Z,69.32
2023-02-16T22:44:11.475Z,70.25
2023-02-16T22:46:39.292Z,66.30
2023-02-16T22:49:06.736Z,66.18
2023-02-16T22:51:34.166Z,68.13
2023-02-16T22:54:02.525Z,68.13
2023-02-16T22:56:31.202Z,65.05
2023-02-16T22:59:00.253Z,68.53
2023-02-16T23:01:29.849Z,63.10
2023-02-16T23:03:59.622Z,69.90
2023-02-16T23:06:30.316Z,68.20
2023-02-16T23:09:06.568Z,74.38
2023-02-16T23:11:35.505Z,67.90
2023-02-16T23:14:03.046Z,65.07
2023-02-16T23:16:30.467Z,64.03
2023-02-16T23:18:59.825Z,78.15
2023-02-16T23:21:32.422Z,59.50
2023-02-16T23:24:00.417Z,62.25
2023-02-16T23:26:31.474Z,61.85
2023-02-16T23:29:01.908Z,62.75
2023-02-16T23:31:33.715Z,61.65
2023-02-16T23:34:02.525Z,57.22
2023-02-16T23:36:31.504Z,64.13
2023-02-16T23:39:03.192Z,69.20
2023-02-16T23:41:30.791Z,65.38
2023-02-16T23:44:00.889Z,59.17
2023-02-16T23:48:56.054Z,54.33
2023-02-16T23:51:23.674Z,58.80
2023-02-16T23:53:51.177Z,62.83
2023-02-16T23:56:23.854Z,58.80
2023-02-16T23:58:51.561Z,57.45
